Time;durP1;ratioP1;P1;durP2;ratioP2;P2;SDS_P1;SDS_P2;PMS_P1;PMS_P2;Temp;Humidity;BMP_temperature;BMP_pressure;BME280_temperature;BME280_humidity;BME280_pressure;Samples;Min_cycle;Max_cycle;Signal;HPM_P1;HPM_P2
2023/05/24 05:08:19;;;;;;;;;;;;;;;19.01;61.96;96838.94;4222557;27;10370;-69
2023/05/24 05:10:22;;;;;;;;;;;;;;;19.30;61.45;96841.50;4214682;28;5761;-69
2023/05/24 05:12:25;;;;;;;;;;;;;;;19.47;61.10;96835.03;4214569;28;5718;-69
2023/05/24 05:14:28;;;;;;;;;;;;;;;19.67;60.86;96842.56;4213589;28;5917;-68
2023/05/24 05:16:32;;;;;;;;;;;;;;;19.84;60.26;96839.00;4213397;28;5686;-68
2023/05/24 05:18:35;;;;;;;;;;;;;;;19.97;60.18;96838.63;4212548;28;6469;-68
2023/05/24 05:20:37;;;;;;;;;;;;;;;20.10;60.12;96848.16;4214705;28;5686;-68
2023/05/24 05:22:46;;;;;;;;;;;;;;;20.19;59.65;96842.06;4214230;28;5830;-69
2023/05/24 05:24:50;;;;;;;;;;;;;;;20.30;59.70;96843.00;4214668;28;5822;-68
2023/05/24 05:26:52;;;;;;;;;;;;;;;20.38;59.32;96842.50;4214499;28;5918;-68
2023/05/24 05:28:57;;;;;;;;;;;;;;;20.45;59.07;96845.03;4214252;28;5710;-68
2023/05/24 05:31:00;;;;;;;;;;;;;;;20.49;59.08;96846.94;4214514;28;5702;-68
2023/05/24 05:33:04;;;;;;;;;;;;;;;20.53;58.76;96853.44;4215227;28;5773;-69
2023/05/24 05:35:09;;;;;;;;;;;;;;;20.49;58.62;96848.81;4214072;28;7949;-68
2023/05/24 05:37:11;;;;;;;;;;;;;;;20.49;58.52;96851.50;4213129;28;5718;-69
2023/05/24 05:39:15;;;;;;;;;;;;;;;20.51;58.55;96849.41;4211587;28;5719;-68
2023/05/24 05:41:19;;;;;;;;;;;;;;;20.49;58.79;96848.81;4208710;28;5719;-67
2023/05/24 05:43:23;;;;;;;;;;;;;;;20.49;58.41;96856.88;4213714;28;5673;-68
2023/05/24 05:45:27;;;;;;;;;;;;;;;20.43;58.23;96850.66;4214338;28;6403;-68
2023/05/24 05:47:30;;;;;;;;;;;;;;;20.44;58.71;96856.84;4214107;28;5660;-68
2023/05/24 05:49:35;;;;;;;;;;;;;;;20.45;58.20;96855.78;4215349;28;5713;-68
2023/05/24 05:51:38;;;;;;;;;;;;;;;20.44;58.17;96851.47;4214120;28;5723;-68
2023/05/24 05:53:41;;;;;;;;;;;;;;;20.46;58.27;96849.34;4214116;28;5735;-68
2023/05/24 05:55:44;;;;;;;;;;;;;;;20.52;57.76;96856.41;4214038;28;5836;-69
2023/05/24 05:57:48;;;;;;;;;;;;;;;20.44;57.88;96854.16;4213687;28;6384;-69
2023/05/24 05:59:51;;;;;;;;;;;;;;;20.35;58.24;96851.91;4214013;28;5508;-69
2023/05/24 06:01:54;;;;;;;;;;;;;;;20.31;58.10;96844.63;4205845;28;5711;-69
2023/05/24 06:03:57;;;;;;;;;;;;;;;20.30;57.70;96840.31;4213369;28;5687;-70
2023/05/24 06:06:01;;;;;;;;;;;;;;;20.36;57.82;96845.47;4208896;28;5700;-68
2023/05/24 06:08:04;;;;;;;;;;;;;;;20.44;57.58;96848.78;4207149;28;5786;-69
2023/05/24 06:10:07;;;;;;;;;;;;;;;20.47;57.36;96851.75;4201406;28;5665;-69
2023/05/24 06:12:10;;;;;;;;;;;;;;;20.39;57.14;96840.66;4202700;28;5709;-70
2023/05/24 06:14:17;;;;;;;;;;;;;;;20.28;57.74;96837.88;4202344;28;6256;-69
2023/05/24 06:16:20;;;;;;;;;;;;;;;20.30;57.51;96843.81;4194639;28;5685;-69
2023/05/24 06:18:24;;;;;;;;;;;;;;;20.35;57.30;96849.22;4202532;28;5687;-68
2023/05/24 06:20:27;;;;;;;;;;;;;;;20.40;57.12;96848.47;4201141;28;5686;-68
2023/05/24 06:22:30;;;;;;;;;;;;;;;20.35;56.93;96845.72;4197180;28;5661;-69
2023/05/24 06:24:33;;;;;;;;;;;;;;;20.34;57.10;96841.41;4202413;28;5711;-68
2023/05/24 06:26:36;;;;;;;;;;;;;;;20.23;56.74;96847.75;4202180;28;5726;-68
2023/05/24 06:28:39;;;;;;;;;;;;;;;20.09;57.26;96847.34;4201906;28;5731;-68
2023/05/24 06:30:43;;;;;;;;;;;;;;;20.17;57.04;96844.22;4202156;28;5850;-68
2023/05/24 06:32:47;;;;;;;;;;;;;;;20.22;57.14;96841.56;4198953;28;5856;-68
2023/05/24 06:34:50;;;;;;;;;;;;;;;20.33;56.77;96848.66;4192921;28;5718;-68
2023/05/24 06:36:54;;;;;;;;;;;;;;;20.42;56.67;96850.88;4202540;28;6392;-68
2023/05/24 06:38:56;;;;;;;;;;;;;;;20.34;56.32;96850.28;4195247;28;5958;-68
2023/05/24 06:40:59;;;;;;;;;;;;;;;20.36;56.47;96852.69;4188281;28;5743;-68
2023/05/24 06:43:03;;;;;;;;;;;;;;;20.46;56.45;96852.03;4187955;28;6397;-67
2023/05/24 06:45:08;;;;;;;;;;;;;;;20.54;56.45;96856.94;4195151;28;5857;-68
2023/05/24 06:47:12;;;;;;;;;;;;;;;20.61;55.99;96852.16;4201366;28;5734;-68
2023/05/24 06:49:15;;;;;;;;;;;;;;;20.64;55.93;96859.72;4198221;28;5727;-68
2023/05/24 06:51:18;;;;;;;;;;;;;;;20.65;55.80;96861.34;4192024;28;5685;-68
2023/05/24 06:53:21;;;;;;;;;;;;;;;20.66;55.80;96856.78;4197773;28;5825;-68
2023/05/24 06:55:24;;;;;;;;;;;;;;;20.70;56.07;96866.75;4200666;28;5850;-68
2023/05/24 06:57:27;;;;;;;;;;;;;;;20.73;55.99;96876.19;4194155;28;5833;-68
2023/05/24 06:59:30;;;;;;;;;;;;;;;20.71;55.83;96868.34;4201162;28;5791;-68
2023/05/24 07:01:33;;;;;;;;;;;;;;;20.67;55.61;96866.44;4201491;28;6934;-68
2023/05/24 07:03:37;;;;;;;;;;;;;;;20.63;55.89;96858.09;4201344;28;5829;-68
2023/05/24 07:05:40;;;;;;;;;;;;;;;20.62;55.45;96856.47;4191842;28;5889;-68
2023/05/24 07:07:43;;;;;;;;;;;;;;;20.62;55.84;96867.22;4194516;28;5761;-68
2023/05/24 07:09:47;;;;;;;;;;;;;;;20.69;55.81;96858.94;4201880;28;5826;-70
2023/05/24 07:11:50;;;;;;;;;;;;;;;20.75;55.27;96860.63;4201807;28;5701;-69
2023/05/24 07:13:52;;;;;;;;;;;;;;;20.77;55.15;96853.91;4200888;28;5696;-69
2023/05/24 07:15:57;;;;;;;;;;;;;;;20.78;55.30;96860.91;4190952;28;5716;-69
2023/05/24 07:18:00;;;;;;;;;;;;;;;20.76;55.31;96867.63;4187091;28;5695;-69
2023/05/24 07:20:09;;;;;;;;;;;;;;;20.58;54.85;96860.72;4186749;28;5813;-69
2023/05/24 07:22:12;;;;;;;;;;;;;;;20.51;55.50;96866.31;4197064;28;5719;-69
2023/05/24 07:24:15;;;;;;;;;;;;;;;20.59;55.60;96860.47;4193994;28;5715;-72
2023/05/24 07:26:18;;;;;;;;;;;;;;;20.67;55.23;96869.94;4190684;28;5821;-69
2023/05/24 07:28:21;;;;;;;;;;;;;;;20.75;54.88;96866.81;4186472;28;5142;-70
2023/05/24 07:30:24;;;;;;;;;;;;;;;20.80;54.73;96863.34;4188326;28;5705;-70
2023/05/24 07:32:32;;;;;;;;;;;;;;;20.80;54.99;96858.78;4192678;28;5678;-69
2023/05/24 07:34:38;;;;;;;;;;;;;;;20.76;54.73;96868.41;4195002;28;6033;-69
2023/05/24 07:36:42;;;;;;;;;;;;;;;20.67;55.00;96864.56;4201153;28;5947;-69
2023/05/24 07:38:45;;;;;;;;;;;;;;;20.70;54.73;96858.69;4199510;28;7312;-69
2023/05/24 07:40:48;;;;;;;;;;;;;;;20.75;54.70;96864.13;4200524;28;5670;-64
2023/05/24 07:42:51;;;;;;;;;;;;;;;20.80;54.85;96858.78;4200500;28;5699;-63
2023/05/24 07:44:55;;;;;;;;;;;;;;;20.82;54.36;96856.63;4196301;28;5762;-64
2023/05/24 07:46:58;;;;;;;;;;;;;;;20.83;54.30;96869.00;4192360;28;5777;-65
2023/05/24 07:49:01;;;;;;;;;;;;;;;20.85;54.29;96866.09;4197705;28;5836;-64
2023/05/24 07:51:06;;;;;;;;;;;;;;;20.90;54.49;96864.22;4192600;28;5720;-64
2023/05/24 07:53:10;;;;;;;;;;;;;;;20.96;54.29;96869.66;4199893;28;5790;-64
2023/05/24 07:55:13;;;;;;;;;;;;;;;20.99;54.54;96861.06;4200840;28;5702;-64
2023/05/24 07:57:16;;;;;;;;;;;;;;;21.01;54.22;96858.94;4200596;28;5777;-64
2023/05/24 07:59:21;;;;;;;;;;;;;;;21.04;54.13;96864.59;4200319;28;5675;-64
2023/05/24 08:01:24;;;;;;;;;;;;;;;21.06;54.03;96861.66;4200643;28;6412;-64
2023/05/24 08:03:28;;;;;;;;;;;;;;;21.07;54.38;96865.97;4200364;28;5746;-65
2023/05/24 08:05:31;;;;;;;;;;;;;;;21.02;54.12;96860.56;4202269;28;5773;-65
2023/05/24 08:07:36;;;;;;;;;;;;;;;21.05;54.18;96865.41;4205836;28;5857;-64
2023/05/24 08:09:40;;;;;;;;;;;;;;;21.07;54.24;96864.09;4200346;28;5813;-66
2023/05/24 08:11:43;;;;;;;;;;;;;;;21.09;54.25;96866.53;4200518;28;5702;-67
2023/05/24 08:13:46;;;;;;;;;;;;;;;21.13;54.08;96873.81;4199653;28;5679;-64
2023/05/24 08:15:49;;;;;;;;;;;;;;;21.15;54.02;96866.28;4200355;28;6403;-64
2023/05/24 08:17:52;;;;;;;;;;;;;;;21.18;54.13;96871.16;4200219;28;6388;-64
2023/05/24 08:19:55;;;;;;;;;;;;;;;21.22;53.73;96872.25;4199921;28;5707;-65
2023/05/24 08:22:03;;;;;;;;;;;;;;;21.26;53.75;96872.56;4198976;28;5766;-64
2023/05/24 08:24:06;;;;;;;;;;;;;;;21.27;53.75;96874.19;4198266;28;5844;-72
2023/05/24 08:26:12;;;;;;;;;;;;;;;21.29;53.46;96876.63;4195535;28;5707;-64
2023/05/24 08:28:17;;;;;;;;;;;;;;;21.26;53.94;96879.84;4199446;28;5727;-63
2023/05/24 08:30:20;;;;;;;;;;;;;;;21.24;53.63;96874.69;4197743;28;5709;-64
2023/05/24 08:32:23;;;;;;;;;;;;;;;21.23;53.49;96881.13;4199956;28;5702;-68
2023/05/24 08:34:27;;;;;;;;;;;;;;;21.19;53.59;96880.84;4200127;28;5706;-69
2023/05/24 08:36:30;;;;;;;;;;;;;;;21.19;53.58;96877.34;4200282;28;5687;-70
2023/05/24 08:38:37;;;;;;;;;;;;;;;21.22;53.59;96872.25;4200655;28;5790;-69
2023/05/24 08:40:40;;;;;;;;;;;;;;;21.26;53.55;96874.44;4198189;28;5118;-70
2023/05/24 08:42:45;;;;;;;;;;;;;;;21.30;53.68;96876.38;4199982;28;5765;-70
2023/05/24 08:45:04;;;;;;;;;;;;;;;21.31;53.77;96875.31;4204697;28;5682;-69
2023/05/24 08:47:08;;;;;;;;;;;;;;;21.32;53.39;96885.00;4200116;28;6410;-68
2023/05/24 08:49:13;;;;;;;;;;;;;;;21.32;53.81;96882.31;4191629;28;5810;-67
2023/05/24 08:51:19;;;;;;;;;;;;;;;21.34;53.57;96885.53;4192139;28;5686;-68
2023/05/24 08:53:23;;;;;;;;;;;;;;;21.32;53.57;96885.00;4200130;28;5793;-68
2023/05/24 08:55:27;;;;;;;;;;;;;;;21.32;53.47;96890.38;4200604;28;5694;-68
2023/05/24 08:57:34;;;;;;;;;;;;;;;21.33;53.06;96889.31;4199123;28;5682;-67
2023/05/24 08:59:40;;;;;;;;;;;;;;;21.32;53.40;96890.38;4199631;28;5689;-68
2023/05/24 09:01:46;;;;;;;;;;;;;;;21.32;53.55;96903.81;4199904;28;5687;-66
2023/05/24 09:03:51;;;;;;;;;;;;;;;21.30;53.52;96895.22;4200145;28;5857;-66
2023/05/24 09:05:54;;;;;;;;;;;;;;;21.31;53.11;96896.00;4199680;28;5396;-67
2023/05/24 09:07:59;;;;;;;;;;;;;;;21.31;53.52;96894.13;4199195;28;5702;-68
2023/05/24 09:10:05;;;;;;;;;;;;;;;21.28;53.04;96896.50;4200107;28;5706;-67
2023/05/24 09:12:11;;;;;;;;;;;;;;;21.25;53.41;96908.56;4200596;28;5750;-67
2023/05/24 09:14:26;;;;;;;;;;;;;;;21.23;53.48;96899.97;4197833;28;5835;-68
2023/05/24 09:16:31;;;;;;;;;;;;;;;21.22;53.19;96906.41;4199799;28;5750;-67
2023/05/24 09:18:35;;;;;;;;;;;;;;;21.21;53.47;96902.91;4199780;28;5695;-68
2023/05/24 09:20:37;;;;;;;;;;;;;;;21.19;53.35;96912.31;4199582;28;5707;-68
2023/05/24 09:22:42;;;;;;;;;;;;;;;21.16;53.44;96904.72;4199783;28;6028;-68
2023/05/24 09:24:48;;;;;;;;;;;;;;;21.19;53.52;96907.72;4194703;28;6417;-68
2023/05/24 09:26:51;;;;;;;;;;;;;;;21.20;53.21;96911.22;4199374;28;5683;-70
2023/05/24 09:28:56;;;;;;;;;;;;;;;21.20;53.28;96908.53;4199468;28;5781;-69
2023/05/24 09:31:01;;;;;;;;;;;;;;;21.21;53.50;96904.78;4198280;28;5793;-69
2023/05/24 09:33:11;;;;;;;;;;;;;;;21.19;53.72;96906.94;4199926;28;5864;-69
2023/05/24 09:35:14;;;;;;;;;;;;;;;21.21;53.47;96896.72;4199785;28;5695;-69
2023/05/24 09:37:20;;;;;;;;;;;;;;;21.27;53.66;96900.28;4191535;28;5691;-69
2023/05/24 09:39:28;;;;;;;;;;;;;;;21.29;53.48;96898.94;4199316;28;6379;-70
2023/05/24 09:41:31;;;;;;;;;;;;;;;21.31;53.51;96912.97;4199482;28;5834;-68
2023/05/24 09:43:48;;;;;;;;;;;;;;;21.29;53.48;96904.31;4200948;28;5721;-69
2023/05/24 09:45:52;;;;;;;;;;;;;;;21.32;53.62;96906.50;4202629;28;5810;-69
2023/05/24 09:47:56;;;;;;;;;;;;;;;21.33;53.45;96900.06;4202555;28;6372;-69
2023/05/24 09:50:02;;;;;;;;;;;;;;;21.33;53.44;96899.25;4202371;28;5734;-69
2023/05/24 09:52:05;;;;;;;;;;;;;;;21.37;53.21;96908.41;4202690;28;5781;-69
2023/05/24 09:54:09;;;;;;;;;;;;;;;21.38;53.27;96900.06;4202629;28;5698;-69
2023/05/24 09:56:11;;;;;;;;;;;;;;;21.41;53.41;96901.47;4202196;28;5785;-68
2023/05/24 09:58:16;;;;;;;;;;;;;;;21.39;53.49;96909.75;4202216;28;5773;-68
2023/05/24 10:00:23;;;;;;;;;;;;;;;21.44;53.29;96911.69;4210754;28;5673;-67
2023/05/24 10:02:26;;;;;;;;;;;;;;;21.50;53.54;96902.56;4202259;28;6905;-70
2023/05/24 10:04:37;;;;;;;;;;;;;;;21.54;52.96;96910.94;4196300;28;5715;-69
2023/05/24 10:06:42;;;;;;;;;;;;;;;21.53;53.17;96909.34;4196858;28;5765;-69
2023/05/24 10:08:47;;;;;;;;;;;;;;;21.51;53.35;96912.25;4202415;28;5816;-71
2023/05/24 10:10:50;;;;;;;;;;;;;;;21.54;52.92;96910.94;4203942;28;5698;-70
2023/05/24 10:12:54;;;;;;;;;;;;;;;21.50;53.01;96916.81;4202264;28;5087;-69
2023/05/24 10:14:58;;;;;;;;;;;;;;;21.49;53.28;96909.03;4202285;28;6428;-69
2023/05/24 10:17:02;;;;;;;;;;;;;;;21.50;53.01;96902.56;4202354;28;5761;-70
2023/05/24 10:19:06;;;;;;;;;;;;;;;21.47;53.06;96898.53;4202254;28;5781;-70
2023/05/24 10:21:10;;;;;;;;;;;;;;;21.57;53.31;96894.28;4201561;28;5916;-70
2023/05/24 10:23:20;;;;;;;;;;;;;;;21.63;53.18;96901.28;4197554;28;5707;-69
2023/05/24 10:25:26;;;;;;;;;;;;;;;21.67;52.99;96902.41;4194742;28;5832;-70
2023/05/24 10:27:32;;;;;;;;;;;;;;;21.68;52.74;96895.97;4202069;28;5690;-69
2023/05/24 10:29:49;;;;;;;;;;;;;;;21.73;53.12;96901.34;4199393;28;7211;-66
2023/05/24 10:31:53;;;;;;;;;;;;;;;21.74;52.91;96900.28;4199430;28;5687;-67
2023/05/24 10:33:59;;;;;;;;;;;;;;;21.74;53.00;96893.00;4199422;28;5812;-67
2023/05/24 10:36:12;;;;;;;;;;;;;;;21.80;52.68;96897.38;4197933;28;5823;-67
2023/05/24 10:38:20;;;;;;;;;;;;;;;21.86;52.78;96898.22;4201249;28;5694;-67
2023/05/24 10:40:24;;;;;;;;;;;;;;;21.87;53.10;96897.13;4202244;28;5690;-66
2023/05/24 10:42:31;;;;;;;;;;;;;;;21.92;52.59;96899.03;4200444;28;6208;-66
2023/05/24 10:44:34;;;;;;;;;;;;;;;21.93;52.77;96896.06;4195605;28;5720;-66
2023/05/24 10:46:57;;;;;;;;;;;;;;;21.96;52.89;96894.72;4201981;28;5769;-66
2023/05/24 10:49:02;;;;;;;;;;;;;;;22.00;52.75;96893.97;4201915;28;5803;-66
2023/05/24 10:51:35;;;;;;;;;;;;;;;22.05;52.42;96895.84;4200127;28;6487;-66
2023/05/24 10:53:39;;;;;;;;;;;;;;;22.05;52.61;96901.22;4195978;28;5705;-67
2023/05/24 10:55:52;;;;;;;;;;;;;;;22.05;52.11;96895.84;4199758;28;5694;-67
2023/05/24 10:57:55;;;;;;;;;;;;;;;21.98;52.34;96895.31;4191648;28;5682;-67
2023/05/24 11:00:19;;;;;;;;;;;;;;;21.95;52.71;96902.00;4201761;28;5687;-67
2023/05/24 11:02:36;;;;;;;;;;;;;;;21.92;52.27;96891.75;4199079;28;5985;-67
2023/05/24 11:04:43;;;;;;;;;;;;;;;21.91;52.15;96892.84;4194024;28;5727;-66
2023/05/24 11:06:48;;;;;;;;;;;;;;;21.92;52.46;96894.47;4201230;28;5694;-66
2023/05/24 11:08:51;;;;;;;;;;;;;;;21.90;52.63;96893.91;4200875;28;5706;-65
2023/05/24 11:11:26;;;;;;;;;;;;;;;21.91;52.46;96903.59;4200976;28;6531;-65
2023/05/24 11:13:33;;;;;;;;;;;;;;;21.93;51.97;96903.34;4186284;28;5671;-66
2023/05/24 11:15:37;;;;;;;;;;;;;;;21.96;52.23;96887.47;4201322;28;5706;-66
2023/05/24 11:18:13;;;;;;;;;;;;;;;22.00;51.95;96890.47;4196777;28;5818;-65
2023/05/24 11:20:18;;;;;;;;;;;;;;;22.04;52.12;96895.03;4191872;28;5689;-65
2023/05/24 11:22:22;;;;;;;;;;;;;;;22.06;51.88;96882.16;4200951;28;6510;-65
2023/05/24 11:24:27;;;;;;;;;;;;;;;22.08;52.15;96880.03;4196644;28;5856;-65
2023/05/24 11:26:30;;;;;;;;;;;;;;;22.13;51.82;96881.09;4200536;28;5802;-66
2023/05/24 11:28:36;;;;;;;;;;;;;;;22.11;51.99;96878.69;4200794;28;5687;-69
2023/05/24 11:30:40;;;;;;;;;;;;;;;22.11;51.60;96885.94;4198395;28;5703;-72
2023/05/24 11:32:48;;;;;;;;;;;;;;;22.11;51.60;96891.34;4195125;28;6412;-66
2023/05/24 11:34:51;;;;;;;;;;;;;;;22.14;51.99;96888.09;4196312;28;5710;-65
2023/05/24 11:36:59;;;;;;;;;;;;;;;22.13;51.74;96881.09;4199047;28;5690;-66
2023/05/24 11:39:05;;;;;;;;;;;;;;;22.13;51.77;96881.91;4200851;28;5686;-65
2023/05/24 11:41:08;;;;;;;;;;;;;;;22.14;51.84;96871.97;4200710;28;5694;-64
2023/05/24 11:43:16;;;;;;;;;;;;;;;22.11;51.83;96872.50;4200630;28;5853;-65
2023/05/24 11:45:20;;;;;;;;;;;;;;;22.10;51.55;96862.81;4193324;28;5685;-66
2023/05/24 11:47:30;;;;;;;;;;;;;;;22.08;51.81;96863.88;4193897;28;5686;-65
2023/05/24 11:49:34;;;;;;;;;;;;;;;22.10;51.38;96855.53;4193386;28;6583;-65
2023/05/24 11:51:37;;;;;;;;;;;;;;;22.09;51.64;96848.53;4190032;28;5734;-66
2023/05/24 11:53:41;;;;;;;;;;;;;;;22.11;51.67;96850.94;4197295;28;5709;-66
2023/05/24 11:55:44;;;;;;;;;;;;;;;22.15;51.73;96852.03;4187676;28;5842;-66
2023/05/24 11:57:57;;;;;;;;;;;;;;;22.19;51.37;96843.16;4184142;28;5784;-65
2023/05/24 12:00:00;;;;;;;;;;;;;;;22.23;51.07;96848.81;4195549;28;6265;-65
2023/05/24 12:02:04;;;;;;;;;;;;;;;22.23;51.31;96846.13;4200411;28;5075;-65
2023/05/24 12:04:08;;;;;;;;;;;;;;;22.23;51.52;96848.81;4198496;28;6518;-65
2023/05/24 12:06:12;;;;;;;;;;;;;;;22.21;51.43;96845.59;4199932;28;5785;-64
2023/05/24 12:08:15;;;;;;;;;;;;;;;22.21;51.58;96842.91;4200186;28;6379;-67
2023/05/24 12:10:19;;;;;;;;;;;;;;;22.21;50.96;96840.22;4200211;28;5761;-66
2023/05/24 12:12:24;;;;;;;;;;;;;;;22.25;51.38;96819.75;4187197;28;5865;-64
2023/05/24 12:14:39;;;;;;;;;;;;;;;22.28;51.07;96822.69;4195995;28;5679;-66
2023/05/24 12:16:54;;;;;;;;;;;;;;;22.32;50.84;96823.00;4183259;28;5703;-65
2023/05/24 12:19:18;;;;;;;;;;;;;;;22.33;51.06;96822.72;4194291;28;5829;-65
2023/05/24 12:21:35;;;;;;;;;;;;;;;22.36;50.87;96824.88;4196478;28;5082;-65
2023/05/24 12:23:38;;;;;;;;;;;;;;;22.35;50.73;96823.25;4195881;28;5737;-66
2023/05/24 12:25:43;;;;;;;;;;;;;;;22.37;50.69;96823.00;4195378;28;5715;-65
2023/05/24 12:27:47;;;;;;;;;;;;;;;22.37;50.80;96821.09;4195643;28;5675;-67
2023/05/24 12:29:50;;;;;;;;;;;;;;;22.41;51.01;96824.06;4185214;28;5888;-71
2023/05/24 12:31:53;;;;;;;;;;;;;;;22.43;50.75;96827.31;4196952;28;5869;-71
2023/05/24 12:33:56;;;;;;;;;;;;;;;22.43;50.53;96832.72;4197240;28;5675;-71
2023/05/24 12:35:59;;;;;;;;;;;;;;;22.41;50.12;96832.16;4200696;28;5885;-71
2023/05/24 12:38:02;;;;;;;;;;;;;;;22.37;50.20;96829.19;4200781;28;5723;-71
2023/05/24 12:40:16;;;;;;;;;;;;;;;22.38;50.53;96825.41;4200678;28;5821;-71
2023/05/24 12:42:22;;;;;;;;;;;;;;;22.36;50.29;96829.47;4184137;28;5715;-71
2023/05/24 12:44:26;;;;;;;;;;;;;;;22.28;50.00;96828.09;4185287;28;5731;-71
2023/05/24 12:46:29;;;;;;;;;;;;;;;22.26;49.95;96842.91;4200468;28;6320;-71
2023/05/24 12:48:32;;;;;;;;;;;;;;;22.25;49.61;96839.41;4200692;28;5765;-71
2023/05/24 12:50:36;;;;;;;;;;;;;;;22.25;49.52;96842.09;4200932;28;5885;-72
2023/05/24 12:52:39;;;;;;;;;;;;;;;22.26;49.86;96832.94;4200614;28;5793;-72
2023/05/24 12:54:41;;;;;;;;;;;;;;;22.26;49.87;96834.81;4200497;28;5698;-72
2023/05/24 12:56:44;;;;;;;;;;;;;;;22.23;49.60;96828.09;4200357;28;5747;-71
2023/05/24 12:58:49;;;;;;;;;;;;;;;22.20;49.25;96842.09;4198398;28;5929;-72
2023/05/24 13:00:53;;;;;;;;;;;;;;;22.18;49.46;96829.94;4184141;28;6055;-65
2023/05/24 13:02:57;;;;;;;;;;;;;;;22.16;49.52;96826.72;4198860;28;5730;-65
2023/05/24 13:05:00;;;;;;;;;;;;;;;22.17;49.17;96833.72;4197903;28;5785;-64
2023/05/24 13:07:03;;;;;;;;;;;;;;;22.17;49.34;96839.09;4199598;28;5849;-64
2023/05/24 13:09:06;;;;;;;;;;;;;;;22.13;49.15;96833.47;4200128;28;5940;-64
2023/05/24 13:11:09;;;;;;;;;;;;;;;22.08;49.55;96828.03;4200053;28;5706;-64
2023/05/24 13:13:12;;;;;;;;;;;;;;;22.11;49.48;96829.41;4198506;28;5829;-65
2023/05/24 13:15:18;;;;;;;;;;;;;;;22.18;49.27;96825.38;4199284;28;5694;-64
2023/05/24 13:17:21;;;;;;;;;;;;;;;22.20;49.20;96823.25;4199626;28;6384;-65
2023/05/24 13:19:24;;;;;;;;;;;;;;;22.20;48.99;96822.41;4200770;28;5793;-64
2023/05/24 13:21:28;;;;;;;;;;;;;;;22.17;48.92;96823.75;4203103;28;5726;-65
2023/05/24 13:23:31;;;;;;;;;;;;;;;22.18;48.70;96814.59;4203151;28;5106;-66
2023/05/24 13:25:34;;;;;;;;;;;;;;;22.16;48.85;96818.66;4203051;28;5881;-64
2023/05/24 13:27:37;;;;;;;;;;;;;;;22.15;49.07;96817.03;4203386;28;5807;-64
2023/05/24 13:29:40;;;;;;;;;;;;;;;22.19;48.98;96812.72;4202547;28;5690;-64
2023/05/24 13:32:02;;;;;;;;;;;;;;;22.26;48.79;96805.22;4202246;28;5694;-66
2023/05/24 13:34:06;;;;;;;;;;;;;;;22.32;48.55;96823.00;4202328;28;5816;-66
2023/05/24 13:36:09;;;;;;;;;;;;;;;22.30;48.72;96819.75;4195488;28;5694;-65
2023/05/24 13:38:12;;;;;;;;;;;;;;;22.26;48.47;96824.06;4202819;28;5816;-67
2023/05/24 13:40:15;;;;;;;;;;;;;;;22.16;48.70;96824.84;4202668;28;5762;-67
2023/05/24 13:42:18;;;;;;;;;;;;;;;22.13;48.89;96820.00;4203139;28;5781;-66
2023/05/24 13:44:21;;;;;;;;;;;;;;;22.14;48.35;96815.41;4201783;28;5748;-66
2023/05/24 13:46:24;;;;;;;;;;;;;;;22.18;48.61;96830.75;4201855;28;5824;-64
2023/05/24 13:48:29;;;;;;;;;;;;;;;22.19;48.62;96826.19;4202879;28;5679;-64
2023/05/24 13:50:33;;;;;;;;;;;;;;;22.14;48.68;96829.69;4202654;28;5723;-64
2023/05/24 13:52:36;;;;;;;;;;;;;;;22.05;48.55;96826.66;4201795;28;5697;-66
2023/05/24 13:54:39;;;;;;;;;;;;;;;21.97;48.37;96819.13;4202881;28;5687;-64
2023/05/24 13:56:43;;;;;;;;;;;;;;;21.96;48.66;96830.13;4188272;28;5719;-67
2023/05/24 13:58:46;;;;;;;;;;;;;;;21.97;48.57;96835.28;4190763;28;6475;-65
2023/05/24 14:00:49;;;;;;;;;;;;;;;21.97;48.30;96835.28;4202449;28;5818;-64
2023/05/24 14:02:53;;;;;;;;;;;;;;;21.89;48.14;96827.72;4195537;28;5840;-65
2023/05/24 14:04:57;;;;;;;;;;;;;;;21.87;47.96;96827.16;4202005;28;5678;-65
2023/05/24 14:07:20;;;;;;;;;;;;;;;21.76;48.15;96829.00;4191253;28;5695;-65
2023/05/24 14:09:24;;;;;;;;;;;;;;;21.74;48.23;96823.06;4201598;28;6407;-65
2023/05/24 14:11:30;;;;;;;;;;;;;;;21.70;48.05;96819.28;4202446;28;6372;-65
2023/05/24 14:13:33;;;;;;;;;;;;;;;21.69;48.51;96817.66;4201737;28;5697;-65
2023/05/24 14:15:41;;;;;;;;;;;;;;;21.74;48.01;96822.25;4201145;28;5703;-66
2023/05/24 14:17:44;;;;;;;;;;;;;;;21.72;48.14;96816.31;4196567;28;5828;-65
2023/05/24 14:19:47;;;;;;;;;;;;;;;21.65;48.23;96823.84;4196231;28;5800;-66
2023/05/24 14:21:51;;;;;;;;;;;;;;;21.63;48.13;96818.75;4198141;28;5773;-64
2023/05/24 14:23:54;;;;;;;;;;;;;;;21.60;47.91;96815.75;4195894;28;5686;-64
2023/05/24 14:25:57;;;;;;;;;;;;;;;21.60;48.05;96813.06;4195131;28;5847;-64
2023/05/24 14:28:00;;;;;;;;;;;;;;;21.60;47.90;96802.28;4192034;28;5690;-64
2023/05/24 14:30:03;;;;;;;;;;;;;;;21.55;48.17;96810.34;4195137;28;5898;-68
2023/05/24 14:32:07;;;;;;;;;;;;;;;21.48;47.85;96811.38;4192662;28;5690;-65
2023/05/24 14:34:10;;;;;;;;;;;;;;;21.53;47.94;96807.13;4200759;28;5709;-65
2023/05/24 14:36:13;;;;;;;;;;;;;;;21.54;47.91;96809.53;4189859;28;5728;-65
2023/05/24 14:38:18;;;;;;;;;;;;;;;21.50;47.79;96801.16;4198149;28;5770;-65
2023/05/24 14:40:21;;;;;;;;;;;;;;;21.43;47.45;96808.69;4201907;28;5818;-66
2023/05/24 14:42:24;;;;;;;;;;;;;;;21.40;47.54;96790.38;4190635;28;5805;-65
2023/05/24 14:44:27;;;;;;;;;;;;;;;21.45;47.90;96790.41;4193510;28;6730;-65
2023/05/24 14:46:30;;;;;;;;;;;;;;;21.48;47.60;96795.25;4197497;28;5228;-65
2023/05/24 14:48:34;;;;;;;;;;;;;;;21.50;47.86;96787.72;4193266;28;5690;-66
2023/05/24 14:50:37;;;;;;;;;;;;;;;21.47;47.73;96772.13;4199834;28;5690;-80
2023/05/24 14:52:40;;;;;;;;;;;;;;;21.40;47.65;96786.88;4194173;28;5686;-78
2023/05/24 14:54:44;;;;;;;;;;;;;;;21.35;47.78;96787.66;4192681;28;5858;-79
2023/05/24 14:56:47;;;;;;;;;;;;;;;21.41;47.94;96772.38;4200908;28;5888;-79
2023/05/24 14:58:50;;;;;;;;;;;;;;;21.42;47.26;96785.56;4195312;28;8531;-66
2023/05/24 15:00:55;;;;;;;;;;;;;;;21.41;47.12;96778.56;4195883;28;5679;-74
2023/05/24 15:02:58;;;;;;;;;;;;;;;21.43;47.60;96767.53;4187636;28;5861;-68
2023/05/24 15:05:02;;;;;;;;;;;;;;;21.40;47.21;96776.91;4194816;28;5727;-68
2023/05/24 15:07:05;;;;;;;;;;;;;;;21.40;47.21;96768.03;4194255;28;5840;-68
2023/05/24 15:09:08;;;;;;;;;;;;;;;21.42;47.38;96780.19;4194607;28;5850;-68
2023/05/24 15:11:16;;;;;;;;;;;;;;;21.38;47.49;96780.94;4199500;28;5857;-67
2023/05/24 15:13:19;;;;;;;;;;;;;;;21.34;47.82;96782.56;4198308;28;5784;-68
2023/05/24 15:15:22;;;;;;;;;;;;;;;21.37;47.77;96766.69;4190830;28;5828;-68
2023/05/24 15:17:25;;;;;;;;;;;;;;;21.37;47.62;96774.75;4189048;28;5875;-68
2023/05/24 15:19:29;;;;;;;;;;;;;;;21.34;47.48;96772.59;4193939;28;5688;-68
2023/05/24 15:21:32;;;;;;;;;;;;;;;21.34;47.76;96783.38;4198190;28;5715;-68
2023/05/24 15:23:35;;;;;;;;;;;;;;;21.33;47.67;96773.69;4195385;28;5828;-67
2023/05/24 15:25:38;;;;;;;;;;;;;;;21.38;47.76;96771.00;4192744;28;5726;-68
2023/05/24 15:27:43;;;;;;;;;;;;;;;21.36;47.21;96775.84;4191671;28;5993;-68
2023/05/24 15:29:46;;;;;;;;;;;;;;;21.29;47.57;96780.63;4187244;28;5822;-67
2023/05/24 15:31:49;;;;;;;;;;;;;;;21.24;47.45;96772.53;4188241;28;5797;-67
2023/05/24 15:33:52;;;;;;;;;;;;;;;21.21;47.22;96773.84;4191259;28;5757;-67
2023/05/24 15:35:55;;;;;;;;;;;;;;;21.20;47.48;96776.81;4188787;28;5802;-68
2023/05/24 15:37:58;;;;;;;;;;;;;;;21.15;47.69;96769.50;4197668;28;5114;-68
2023/05/24 15:40:01;;;;;;;;;;;;;;;21.15;47.33;96780.25;4198178;28;5769;-67
2023/05/24 15:42:04;;;;;;;;;;;;;;;21.15;47.71;96779.47;4198195;28;5718;-67
2023/05/24 15:44:09;;;;;;;;;;;;;;;21.16;47.46;96776.50;4192906;28;5854;-67
2023/05/24 15:46:12;;;;;;;;;;;;;;;21.12;47.39;96782.69;4196307;28;5793;-68
2023/05/24 15:48:15;;;;;;;;;;;;;;;21.08;47.50;96778.91;4190991;28;6377;-68
2023/05/24 15:50:18;;;;;;;;;;;;;;;21.05;47.49;96771.34;4196565;28;5125;-68
2023/05/24 15:52:38;;;;;;;;;;;;;;;21.03;47.49;96784.22;4199568;28;5849;-68
2023/05/24 15:54:41;;;;;;;;;;;;;;;21.04;47.75;96769.72;4192238;28;5779;-68
2023/05/24 15:56:43;;;;;;;;;;;;;;;21.05;47.57;96774.03;4192032;28;5806;-68
2023/05/24 15:58:46;;;;;;;;;;;;;;;21.05;47.58;96784.78;4192391;28;5782;-67
2023/05/24 16:00:52;;;;;;;;;;;;;;;21.01;47.75;96770.25;4192908;28;5719;-68
2023/05/24 16:02:55;;;;;;;;;;;;;;;20.97;47.81;96777.22;4192609;28;5650;-67
2023/05/24 16:04:59;;;;;;;;;;;;;;;20.98;47.62;96784.22;4198346;28;5776;-67
2023/05/24 16:07:02;;;;;;;;;;;;;;;20.94;47.89;96779.34;4191891;28;5818;-67